Wetterdaten: Woche 28.06.10 - 04.07.10 (KW26)
Datum Zeit Temperatur Luftfeuchte Luftdruck Niederschlag Windrichtung Sonnenschein Solar Wind
28.06.2010 00:00 16,8 C 79 % 1015,6 hPa 0,0 l/m NW 0,00 h 0 W/m 3,3 km/h (1 Bft)
28.06.2010 01:00 16,3 C 81 % 1015,7 hPa 0,0 l/m N-NW 0,00 h 0 W/m 4,7 km/h (1 Bft)
28.06.2010 02:00 16,1 C 80 % 1015,7 hPa 0,0 l/m N-NW 0,00 h 0 W/m 5,9 km/h (2 Bft)
28.06.2010 03:00 15,1 C 85 % 1015,4 hPa 0,0 l/m N-NW 0,00 h 0 W/m 2,7 km/h (1 Bft)
28.06.2010 04:00 14,4 C 87 % 1015,4 hPa 0,0 l/m N-NW 0,00 h 0 W/m 3,1 km/h (1 Bft)
28.06.2010 05:00 14,0 C 88 % 1015,7 hPa 0,0 l/m N-NW 0,00 h 11 W/m 4,3 km/h (1 Bft)
28.06.2010 06:00 14,5 C 88 % 1016,1 hPa 0,0 l/m N 0,50 h 78 W/m 2,5 km/h (1 Bft)
28.06.2010 07:00 16,5 C 82 % 1016,3 hPa 0,0 l/m N-NW 1,00 h 250 W/m 3,1 km/h (1 Bft)
28.06.2010 08:00 18,9 C 75 % 1016,6 hPa 0,0 l/m N 1,00 h 418 W/m 2,0 km/h (1 Bft)
28.06.2010 09:00 21,2 C 68 % 1016,6 hPa 0,0 l/m SO 1,00 h 563 W/m 4,3 km/h (1 Bft)
28.06.2010 10:00 23,4 C 57 % 1016,5 hPa 0,0 l/m SO 1,00 h 715 W/m 5,9 km/h (2 Bft)
28.06.2010 11:00 25,2 C 45 % 1016,6 hPa 0,0 l/m O-NO 1,00 h 822 W/m 10,3 km/h (2 Bft)
28.06.2010 12:00 25,9 C 41 % 1016,5 hPa 0,0 l/m O-NO 1,00 h 897 W/m 12,5 km/h (3 Bft)
28.06.2010 13:00 26,7 C 39 % 1016,3 hPa 0,0 l/m NO 1,00 h 907 W/m 11,0 km/h (2 Bft)
28.06.2010 14:00 27,0 C 37 % 1015,9 hPa 0,0 l/m O-NO 1,00 h 861 W/m 11,2 km/h (2 Bft)
28.06.2010 15:00 27,2 C 37 % 1015,8 hPa 0,0 l/m O-SO 1,00 h 772 W/m 11,8 km/h (2 Bft)
28.06.2010 16:00 27,6 C 37 % 1015,7 hPa 0,0 l/m NO 1,00 h 659 W/m 11,4 km/h (2 Bft)
28.06.2010 17:00 27,5 C 36 % 1015,3 hPa 0,0 l/m O-SO 1,00 h 505 W/m 11,8 km/h (2 Bft)
28.06.2010 18:00 27,1 C 38 % 1015,1 hPa 0,0 l/m O-SO 1,00 h 339 W/m 12,1 km/h (2 Bft)
28.06.2010 19:00 26,2 C 41 % 1015,0 hPa 0,0 l/m O-SO 0,25 h 95 W/m 10,8 km/h (2 Bft)
28.06.2010 20:00 24,6 C 49 % 1015,1 hPa 0,0 l/m O 0,00 h 26 W/m 4,9 km/h (1 Bft)
28.06.2010 21:00 20,7 C 65 % 1015,4 hPa 0,0 l/m N 0,00 h 6 W/m 0,7 km/h (0 Bft)
28.06.2010 22:00 19,0 C 71 % 1015,8 hPa 0,0 l/m N 0,00 h 0 W/m 0,7 km/h (0 Bft)
28.06.2010 23:00 18,3 C 74 % 1015,9 hPa 0,0 l/m N 0,00 h 0 W/m 2,0 km/h (1 Bft)
29.06.2010 00:00 17,4 C 78 % 1016,0 hPa 0,0 l/m N 0,00 h 0 W/m 0,5 km/h (0 Bft)
29.06.2010 01:00 16,5 C 82 % 1016,0 hPa 0,0 l/m N 0,00 h 0 W/m 0,9 km/h (0 Bft)
29.06.2010 02:00 15,8 C 83 % 1015,8 hPa 0,0 l/m N 0,00 h 0 W/m 0,4 km/h (0 Bft)
29.06.2010 03:00 15,5 C 84 % 1015,8 hPa 0,0 l/m N-NW 0,00 h 0 W/m 3,9 km/h (1 Bft)
29.06.2010 04:00 15,2 C 84 % 1015,8 hPa 0,0 l/m N 0,00 h 0 W/m 0,8 km/h (0 Bft)
29.06.2010 05:00 14,1 C 89 % 1015,8 hPa 0,0 l/m N 0,00 h 13 W/m 0,1 km/h (0 Bft)
29.06.2010 06:00 14,3 C 90 % 1016,0 hPa 0,0 l/m N 0,50 h 78 W/m 0,7 km/h (0 Bft)
29.06.2010 07:00 16,8 C 84 % 1016,0 hPa 0,0 l/m N 1,00 h 217 W/m 0,3 km/h (0 Bft)
29.06.2010 08:00 19,8 C 73 % 1016,3 hPa 0,0 l/m N 1,00 h 380 W/m 1,3 km/h (1 Bft)
29.06.2010 09:00 22,2 C 66 % 1016,5 hPa 0,0 l/m SW 1,00 h 530 W/m 3,5 km/h (1 Bft)
29.06.2010 10:00 24,1 C 55 % 1016,3 hPa 0,0 l/m SW 1,00 h 693 W/m 4,8 km/h (1 Bft)
29.06.2010 11:00 25,6 C 48 % 1016,1 hPa 0,0 l/m O-SO 1,00 h 786 W/m 9,9 km/h (2 Bft)
29.06.2010 12:00 26,8 C 42 % 1016,0 hPa 0,0 l/m O-SO 1,00 h 881 W/m 12,4 km/h (3 Bft)
29.06.2010 13:00 27,3 C 39 % 1015,5 hPa 0,0 l/m SO 0,83 h 802 W/m 12,3 km/h (3 Bft)
29.06.2010 14:00 27,6 C 37 % 1015,4 hPa 0,0 l/m O 0,67 h 631 W/m 11,8 km/h (2 Bft)
29.06.2010 15:00 27,7 C 36 % 1015,2 hPa 0,0 l/m SO 0,83 h 585 W/m 10,5 km/h (2 Bft)
29.06.2010 16:00 27,3 C 38 % 1015,1 hPa 0,0 l/m O-SO 0,50 h 391 W/m 4,7 km/h (1 Bft)
29.06.2010 17:00 26,5 C 46 % 1014,9 hPa 0,0 l/m W-NW 0,83 h 379 W/m 11,5 km/h (2 Bft)
29.06.2010 18:00 24,3 C 56 % 1014,8 hPa 0,0 l/m N-NW 0,17 h 193 W/m 17,2 km/h (3 Bft)
29.06.2010 19:00 23,0 C 60 % 1014,8 hPa 0,0 l/m N-NW 0,00 h 63 W/m 9,0 km/h (2 Bft)
29.06.2010 20:00 22,1 C 65 % 1015,0 hPa 0,0 l/m N-NW 0,00 h 22 W/m 4,7 km/h (1 Bft)
29.06.2010 21:00 21,4 C 67 % 1015,4 hPa 0,0 l/m N-NW 0,00 h 5 W/m 4,7 km/h (1 Bft)
29.06.2010 22:00 20,4 C 72 % 1016,0 hPa 0,0 l/m N-NW 0,00 h 0 W/m 1,9 km/h (1 Bft)
29.06.2010 23:00 19,4 C 78 % 1016,1 hPa 0,0 l/m N-NW 0,00 h 0 W/m 3,1 km/h (1 Bft)
30.06.2010 00:00 19,3 C 80 % 1016,3 hPa 0,0 l/m N-NW 0,00 h 0 W/m 2,8 km/h (1 Bft)
30.06.2010 01:00 17,9 C 86 % 1016,3 hPa 0,0 l/m SW 0,00 h 0 W/m 1,6 km/h (1 Bft)
30.06.2010 02:00 16,7 C 90 % 1016,3 hPa 0,0 l/m N 0,00 h 0 W/m 0,0 km/h (0 Bft)
30.06.2010 03:00 15,8 C 89 % 1016,3 hPa 0,0 l/m N 0,00 h 0 W/m 0,0 km/h (0 Bft)
30.06.2010 04:00 15,1 C 92 % 1016,2 hPa 0,0 l/m N 0,00 h 0 W/m 0,3 km/h (0 Bft)
30.06.2010 05:00 15,0 C 93 % 1016,6 hPa 0,0 l/m N 0,00 h 11 W/m 0,3 km/h (0 Bft)
30.06.2010 06:00 14,9 C 93 % 1016,9 hPa 0,0 l/m N 0,17 h 66 W/m 0,7 km/h (0 Bft)
30.06.2010 07:00 17,0 C 89 % 1016,9 hPa 0,0 l/m N 1,00 h 202 W/m 0,4 km/h (0 Bft)
30.06.2010 08:00 19,9 C 78 % 1016,9 hPa 0,0 l/m N 1,00 h 363 W/m 1,7 km/h (1 Bft)
30.06.2010 09:00 21,7 C 73 % 1016,9 hPa 0,0 l/m NO 1,00 h 510 W/m 4,0 km/h (1 Bft)
30.06.2010 10:00 23,3 C 68 % 1017,0 hPa 0,0 l/m O 1,00 h 659 W/m 6,3 km/h (2 Bft)
30.06.2010 11:00 24,8 C 61 % 1017,0 hPa 0,0 l/m NO 1,00 h 773 W/m 7,1 km/h (2 Bft)
30.06.2010 12:00 26,1 C 53 % 1016,8 hPa 0,0 l/m NO 0,92 h 836 W/m 8,9 km/h (2 Bft)
30.06.2010 13:00 26,5 C 51 % 1016,4 hPa 0,0 l/m O-SO 0,75 h 733 W/m 9,4 km/h (2 Bft)
30.06.2010 14:00 26,1 C 51 % 1016,1 hPa 0,0 l/m N-NO 0,25 h 394 W/m 7,9 km/h (2 Bft)
30.06.2010 15:00 26,1 C 53 % 1015,9 hPa 0,0 l/m N-NO 0,58 h 537 W/m 11,8 km/h (2 Bft)
30.06.2010 16:00 26,0 C 55 % 1015,8 hPa 0,0 l/m N-NO 1,00 h 474 W/m 13,3 km/h (3 Bft)
30.06.2010 17:00 26,2 C 52 % 1015,4 hPa 0,0 l/m O-NO 0,75 h 384 W/m 10,3 km/h (2 Bft)
30.06.2010 18:00 26,1 C 50 % 1015,2 hPa 0,0 l/m N 0,67 h 294 W/m 8,6 km/h (2 Bft)
30.06.2010 19:00 25,2 C 55 % 1015,3 hPa 0,0 l/m NO 0,17 h 96 W/m 6,0 km/h (2 Bft)
30.06.2010 20:00 23,1 C 66 % 1015,5 hPa 0,0 l/m NO 0,00 h 28 W/m 2,9 km/h (1 Bft)
30.06.2010 21:00 21,7 C 72 % 1015,6 hPa 0,0 l/m N 0,00 h 8 W/m 1,6 km/h (1 Bft)
30.06.2010 22:00 20,8 C 76 % 1016,1 hPa 0,0 l/m N-NW 0,00 h 0 W/m 4,7 km/h (1 Bft)
30.06.2010 23:00 20,0 C 79 % 1016,0 hPa 0,0 l/m N-NW 0,00 h 0 W/m 2,8 km/h (1 Bft)
01.07.2010 00:00 19,0 C 83 % 1015,9 hPa 0,0 l/m N 0,00 h 0 W/m 1,3 km/h (1 Bft)
01.07.2010 01:00 18,6 C 83 % 1015,7 hPa 0,0 l/m N 0,00 h 0 W/m 1,6 km/h (1 Bft)
01.07.2010 02:00 17,3 C 86 % 1015,4 hPa 0,0 l/m NW 0,00 h 0 W/m 2,3 km/h (1 Bft)
01.07.2010 03:00 17,3 C 85 % 1015,4 hPa 0,0 l/m N-NW 0,00 h 0 W/m 8,7 km/h (2 Bft)
01.07.2010 04:00 17,2 C 83 % 1015,0 hPa 0,0 l/m N-NW 0,00 h 0 W/m 5,9 km/h (2 Bft)
01.07.2010 05:00 15,9 C 89 % 1015,2 hPa 0,0 l/m N 0,08 h 12 W/m 0,1 km/h (0 Bft)
01.07.2010 06:00 15,6 C 91 % 1015,4 hPa 0,0 l/m N 0,00 h 52 W/m 0,4 km/h (0 Bft)
01.07.2010 07:00 17,0 C 88 % 1015,3 hPa 0,0 l/m N 0,58 h 184 W/m 0,4 km/h (0 Bft)
01.07.2010 08:00 20,3 C 75 % 1015,3 hPa 0,0 l/m NO 1,00 h 359 W/m 2,9 km/h (1 Bft)
01.07.2010 09:00 22,4 C 67 % 1015,4 hPa 0,0 l/m O-SO 1,00 h 519 W/m 6,8 km/h (2 Bft)
01.07.2010 10:00 24,1 C 60 % 1015,1 hPa 0,0 l/m SO 1,00 h 647 W/m 10,3 km/h (2 Bft)
01.07.2010 11:00 25,5 C 52 % 1015,0 hPa 0,0 l/m O-NO 1,00 h 788 W/m 11,7 km/h (2 Bft)
01.07.2010 12:00 26,4 C 49 % 1014,6 hPa 0,0 l/m O-SO 0,92 h 805 W/m 10,7 km/h (2 Bft)
01.07.2010 13:00 26,8 C 47 % 1014,4 hPa 0,0 l/m O-NO 0,50 h 575 W/m 8,8 km/h (2 Bft)
01.07.2010 14:00 27,3 C 43 % 1014,2 hPa 0,0 l/m N-NO 0,67 h 620 W/m 8,2 km/h (2 Bft)
01.07.2010 15:00 28,0 C 40 % 1013,9 hPa 0,0 l/m O 0,92 h 698 W/m 10,5 km/h (2 Bft)
01.07.2010 16:00 28,3 C 39 % 1013,5 hPa 0,0 l/m O 1,00 h 559 W/m 10,9 km/h (2 Bft)
01.07.2010 17:00 27,9 C 39 % 1013,1 hPa 0,0 l/m O-SO 1,00 h 400 W/m 9,4 km/h (2 Bft)
01.07.2010 18:00 27,9 C 40 % 1012,8 hPa 0,0 l/m O-NO 1,00 h 346 W/m 9,4 km/h (2 Bft)
01.07.2010 19:00 27,3 C 42 % 1012,9 hPa 0,0 l/m O-NO 0,25 h 95 W/m 9,0 km/h (2 Bft)
01.07.2010 20:00 24,5 C 56 % 1013,0 hPa 0,0 l/m O-NO 0,00 h 26 W/m 2,4 km/h (1 Bft)
01.07.2010 21:00 21,6 C 66 % 1013,2 hPa 0,0 l/m N 0,08 h 9 W/m 1,2 km/h (1 Bft)
01.07.2010 22:00 20,1 C 72 % 1013,5 hPa 0,0 l/m N 0,00 h 0 W/m 0,9 km/h (0 Bft)
01.07.2010 23:00 19,0 C 76 % 1013,7 hPa 0,0 l/m N 0,00 h 0 W/m 1,1 km/h (0 Bft)
02.07.2010 00:00 18,0 C 80 % 1013,7 hPa 0,0 l/m N 0,00 h 0 W/m 1,9 km/h (1 Bft)
02.07.2010 01:00 17,8 C 81 % 1013,8 hPa 0,0 l/m N-NW 0,00 h 0 W/m 2,9 km/h (1 Bft)
02.07.2010 02:00 17,6 C 81 % 1013,8 hPa 0,0 l/m N-NW 0,00 h 0 W/m 6,9 km/h (2 Bft)
02.07.2010 03:00 17,2 C 82 % 1013,7 hPa 0,0 l/m N-NW 0,00 h 0 W/m 4,7 km/h (1 Bft)
02.07.2010 04:00 16,1 C 88 % 1013,9 hPa 0,0 l/m N 0,00 h 0 W/m 0,1 km/h (0 Bft)
02.07.2010 05:00 15,3 C 91 % 1014,0 hPa 0,0 l/m N 0,00 h 12 W/m 0,1 km/h (0 Bft)
02.07.2010 06:00 15,6 C 91 % 1014,3 hPa 0,0 l/m N 0,25 h 71 W/m 0,1 km/h (0 Bft)
02.07.2010 07:00 17,7 C 85 % 1014,5 hPa 0,0 l/m N 1,00 h 216 W/m 0,7 km/h (0 Bft)
02.07.2010 08:00 20,6 C 75 % 1014,7 hPa 0,0 l/m SW 1,00 h 397 W/m 2,5 km/h (1 Bft)
02.07.2010 09:00 22,9 C 68 % 1014,7 hPa 0,0 l/m SW 1,00 h 540 W/m 7,1 km/h (2 Bft)
02.07.2010 10:00 24,8 C 61 % 1014,5 hPa 0,0 l/m SW 1,00 h 687 W/m 7,6 km/h (2 Bft)
02.07.2010 11:00 26,4 C 58 % 1014,4 hPa 0,0 l/m W-SW 1,00 h 803 W/m 7,2 km/h (2 Bft)
02.07.2010 12:00 28,1 C 51 % 1014,2 hPa 0,0 l/m SW 1,00 h 875 W/m 8,4 km/h (2 Bft)
02.07.2010 13:00 29,1 C 42 % 1013,9 hPa 0,0 l/m SW 1,00 h 871 W/m 7,5 km/h (2 Bft)
02.07.2010 14:00 29,9 C 39 % 1013,6 hPa 0,0 l/m SW 1,00 h 896 W/m 8,0 km/h (2 Bft)
02.07.2010 15:00 30,0 C 36 % 1013,5 hPa 0,0 l/m O-SO 0,92 h 640 W/m 8,4 km/h (2 Bft)
02.07.2010 16:00 30,7 C 36 % 1013,2 hPa 0,0 l/m O-SO 1,00 h 610 W/m 11,4 km/h (2 Bft)
02.07.2010 17:00 30,1 C 38 % 1012,9 hPa 0,0 l/m O 0,67 h 375 W/m 11,8 km/h (2 Bft)
02.07.2010 18:00 29,1 C 41 % 1012,5 hPa 0,0 l/m O-NO 0,00 h 164 W/m 8,4 km/h (2 Bft)
02.07.2010 19:00 26,8 C 53 % 1012,6 hPa 0,0 l/m O-NO 0,00 h 48 W/m 5,1 km/h (1 Bft)
02.07.2010 20:00 24,1 C 65 % 1012,7 hPa 0,0 l/m N 0,00 h 24 W/m 1,3 km/h (1 Bft)
02.07.2010 21:00 21,8 C 71 % 1013,3 hPa 0,0 l/m N 0,00 h 6 W/m 1,2 km/h (1 Bft)
02.07.2010 22:00 20,5 C 74 % 1013,8 hPa 0,0 l/m N 0,00 h 0 W/m 1,5 km/h (1 Bft)
02.07.2010 23:00 19,8 C 74 % 1014,2 hPa 0,0 l/m N 0,00 h 0 W/m 1,7 km/h (1 Bft)
03.07.2010 00:00 19,1 C 75 % 1014,3 hPa 0,0 l/m N 0,00 h 0 W/m 2,1 km/h (1 Bft)
03.07.2010 01:00 18,4 C 78 % 1014,3 hPa 0,0 l/m N 0,00 h 0 W/m 1,5 km/h (1 Bft)
03.07.2010 02:00 17,9 C 80 % 1014,3 hPa 0,0 l/m NW 0,00 h 0 W/m 3,1 km/h (1 Bft)
03.07.2010 03:00 17,7 C 80 % 1014,3 hPa 0,0 l/m N-NW 0,00 h 0 W/m 4,0 km/h (1 Bft)
03.07.2010 04:00 16,4 C 85 % 1014,3 hPa 0,0 l/m N 0,00 h 0 W/m 0,4 km/h (0 Bft)
03.07.2010 05:00 15,5 C 90 % 1014,4 hPa 0,0 l/m N 0,08 h 9 W/m 0,0 km/h (0 Bft)
03.07.2010 06:00 15,7 C 90 % 1014,7 hPa 0,0 l/m N 0,42 h 69 W/m 0,1 km/h (0 Bft)
03.07.2010 07:00 18,5 C 81 % 1014,8 hPa 0,0 l/m N 1,00 h 242 W/m 0,9 km/h (0 Bft)
03.07.2010 08:00 21,6 C 69 % 1014,9 hPa 0,0 l/m N 1,00 h 408 W/m 2,0 km/h (1 Bft)
03.07.2010 09:00 24,0 C 61 % 1014,9 hPa 0,0 l/m S-SW 1,00 h 561 W/m 4,5 km/h (1 Bft)
03.07.2010 10:00 25,9 C 57 % 1014,9 hPa 0,0 l/m S 1,00 h 699 W/m 6,4 km/h (2 Bft)
03.07.2010 11:00 27,7 C 49 % 1014,8 hPa 0,0 l/m S-SW 1,00 h 797 W/m 5,9 km/h (2 Bft)
03.07.2010 12:00 28,9 C 46 % 1014,7 hPa 0,0 l/m SW 1,00 h 850 W/m 7,8 km/h (2 Bft)
03.07.2010 13:00 29,6 C 42 % 1014,4 hPa 0,0 l/m O-SO 1,00 h 869 W/m 8,7 km/h (2 Bft)
03.07.2010 14:00 30,0 C 41 % 1014,0 hPa 0,0 l/m N-NO 0,83 h 717 W/m 10,1 km/h (2 Bft)
03.07.2010 15:00 30,4 C 37 % 1013,5 hPa 0,0 l/m O-SO 0,67 h 553 W/m 13,0 km/h (3 Bft)
03.07.2010 16:00 30,8 C 34 % 1013,4 hPa 0,0 l/m O 1,00 h 637 W/m 12,6 km/h (3 Bft)
03.07.2010 17:00 30,8 C 33 % 1013,3 hPa 0,0 l/m O 1,00 h 481 W/m 12,9 km/h (3 Bft)
03.07.2010 18:00 29,4 C 40 % 1013,4 hPa 0,0 l/m N-NW 0,50 h 201 W/m 7,9 km/h (2 Bft)
03.07.2010 19:00 27,4 C 54 % 1013,3 hPa 0,0 l/m N-NO 0,25 h 95 W/m 6,7 km/h (2 Bft)
03.07.2010 20:00 25,3 C 64 % 1013,9 hPa 0,0 l/m W-NW 0,00 h 16 W/m 7,0 km/h (2 Bft)
03.07.2010 21:00 23,3 C 68 % 1014,3 hPa 0,0 l/m N-NW 0,00 h 0 W/m 4,9 km/h (1 Bft)
03.07.2010 22:00 22,2 C 70 % 1015,0 hPa 0,0 l/m W 0,00 h 0 W/m 7,4 km/h (2 Bft)
03.07.2010 23:00 22,4 C 71 % 1015,6 hPa 0,0 l/m W-SW 0,00 h 0 W/m 8,6 km/h (2 Bft)
04.07.2010 00:00 21,7 C 72 % 1015,7 hPa 0,0 l/m W 0,00 h 0 W/m 10,1 km/h (2 Bft)
04.07.2010 01:00 20,4 C 78 % 1015,9 hPa 0,0 l/m S-SW 0,00 h 0 W/m 3,1 km/h (1 Bft)
04.07.2010 02:00 19,2 C 84 % 1015,6 hPa 0,0 l/m S-SW 0,00 h 0 W/m 7,1 km/h (2 Bft)
04.07.2010 03:00 19,7 C 81 % 1015,8 hPa 0,0 l/m W 0,00 h 0 W/m 10,9 km/h (2 Bft)
04.07.2010 04:00 19,7 C 79 % 1015,9 hPa 0,0 l/m W-NW 0,00 h 0 W/m 16,4 km/h (3 Bft)
04.07.2010 05:00 18,6 C 85 % 1016,4 hPa 5,8 l/m W-NW 0,00 h 7 W/m 11,5 km/h (2 Bft)
04.07.2010 06:00 17,3 C 94 % 1016,5 hPa 6,8 l/m W-SW 0,00 h 10 W/m 7,6 km/h (2 Bft)
04.07.2010 07:00 17,7 C 95 % 1017,0 hPa 0,0 l/m SW 0,00 h 64 W/m 6,3 km/h (2 Bft)
04.07.2010 08:00 19,0 C 92 % 1017,1 hPa 0,0 l/m S 0,33 h 235 W/m 3,3 km/h (1 Bft)
04.07.2010 09:00 20,9 C 86 % 1017,1 hPa 0,0 l/m S-SO 0,83 h 432 W/m 8,3 km/h (2 Bft)
04.07.2010 10:00 21,1 C 81 % 1017,3 hPa 0,0 l/m W-NW 0,00 h 282 W/m 8,3 km/h (2 Bft)
04.07.2010 11:00 21,8 C 77 % 1017,5 hPa 0,0 l/m W-NW 0,25 h 420 W/m 7,2 km/h (2 Bft)
04.07.2010 12:00 23,1 C 71 % 1017,5 hPa 0,0 l/m N-NO 0,92 h 584 W/m 8,0 km/h (2 Bft)
04.07.2010 13:00 23,4 C 73 % 1017,1 hPa 0,0 l/m N-NW 0,42 h 517 W/m 9,9 km/h (2 Bft)
04.07.2010 14:00 23,1 C 72 % 1017,1 hPa 0,0 l/m N-NW 0,25 h 219 W/m 8,3 km/h (2 Bft)
04.07.2010 15:00 21,7 C 83 % 1016,9 hPa 0,4 l/m N-NW 0,00 h 168 W/m 4,0 km/h (1 Bft)
04.07.2010 16:00 22,8 C 81 % 1016,6 hPa 0,0 l/m W 0,42 h 398 W/m 4,0 km/h (1 Bft)
04.07.2010 17:00 22,9 C 80 % 1016,3 hPa 0,2 l/m NW 0,08 h 162 W/m 9,6 km/h (2 Bft)
04.07.2010 18:00 21,5 C 87 % 1016,4 hPa 0,0 l/m N-NW 0,00 h 110 W/m 5,9 km/h (2 Bft)
04.07.2010 19:00 21,7 C 86 % 1016,5 hPa 0,0 l/m NW 0,58 h 151 W/m 4,1 km/h (1 Bft)
04.07.2010 20:00 21,3 C 89 % 1016,6 hPa 0,0 l/m N 0,00 h 36 W/m 1,9 km/h (1 Bft)
04.07.2010 21:00 20,4 C 92 % 1016,8 hPa 0,0 l/m N 0,17 h 12 W/m 1,5 km/h (1 Bft)
04.07.2010 22:00 19,9 C 91 % 1017,1 hPa 0,0 l/m N 0,00 h 0 W/m 2,0 km/h (1 Bft)
04.07.2010 23:00 19,4 C 91 % 1017,1 hPa 0,0 l/m N 0,00 h 0 W/m 2,3 km/h (1 Bft)
Min-Datum _ 28.06.10 03.07.10 02.07.10 - - - - 28.06.10
_ Min-Zeit 05:10 17:25 18:20 - - - - 03:20
Minimum _ 13,8 C 31 % 1012,5 hPa - - - - 0,0 km/h (0 Bft)
Max-Datum _ 03.07.10 30.06.10 04.07.10 04.07.10 - 28.06.10 29.06.10 29.06.10
_ Max-Zeit 16:10 06:40 11:15 06:00 - 06:30 13:15 18:00
Maximum _ 31,2 C 95 % 1017,6 hPa 6,8 l/m - 0,08 h 1005 W/m 24,1 km/h
NW (4 Bft)
Durchschnitt _ 22,0 C 67 % 1015,3 hPa #13,2 l/m N-NW #71:10 h 389 W/m 5,6 km/h (1 Bft)